createdAt,value
2022-11-24T00:00:32.362Z,43.00
2022-11-24T00:04:55.926Z,38.90
2022-11-24T00:09:00.115Z,47.40
2022-11-24T00:13:04.149Z,45.00
2022-11-24T00:17:07.762Z,44.30
2022-11-24T00:21:11.977Z,38.20
2022-11-24T00:25:15.669Z,38.40
2022-11-24T00:29:19.261Z,37.20
2022-11-24T00:33:22.908Z,40.30
2022-11-24T00:37:27.579Z,34.70
2022-11-24T00:41:32.521Z,31.30
2022-11-24T00:45:36.185Z,33.80
2022-11-24T00:49:39.914Z,32.60
2022-11-24T00:53:44.395Z,33.70
2022-11-24T00:57:48.054Z,35.20
2022-11-24T01:01:51.678Z,32.50
2022-11-24T01:05:55.426Z,32.30
2022-11-24T01:09:59.004Z,30.60
2022-11-24T01:14:02.573Z,32.20
2022-11-24T01:18:06.526Z,34.30
2022-11-24T01:22:10.225Z,32.60
2022-11-24T01:26:17.067Z,30.70
2022-11-24T01:30:22.600Z,29.40
2022-11-24T01:34:26.252Z,27.50
2022-11-24T01:38:29.947Z,23.10
2022-11-24T01:42:53.552Z,24.70
2022-11-24T01:47:29.298Z,25.50
2022-11-24T01:51:37.500Z,25.30
2022-11-24T01:55:41.849Z,20.40
2022-11-24T01:59:49.018Z,25.60
2022-11-24T02:03:53.762Z,22.80
2022-11-24T02:08:00.903Z,20.70
2022-11-24T02:12:05.560Z,22.80
2022-11-24T02:16:12.178Z,24.80
2022-11-24T02:20:17.996Z,24.40
2022-11-24T02:24:41.718Z,24.00
2022-11-24T02:28:46.778Z,22.20
2022-11-24T02:32:51.625Z,24.20
2022-11-24T02:36:55.304Z,25.30
2022-11-24T02:41:02.855Z,26.90
2022-11-24T02:45:09.659Z,24.70
2022-11-24T02:49:13.373Z,25.30
2022-11-24T02:53:16.971Z,22.10
2022-11-24T02:57:23.818Z,28.30
2022-11-24T03:01:27.420Z,21.00
2022-11-24T03:05:31.139Z,22.60
2022-11-24T03:09:34.790Z,25.70
2022-11-24T03:13:38.390Z,26.60
2022-11-24T03:17:42.201Z,29.40
2022-11-24T03:21:47.515Z,28.10
2022-11-24T03:25:51.126Z,26.60
2022-11-24T03:29:54.708Z,27.10
2022-11-24T03:33:58.291Z,32.50
2022-11-24T03:38:01.948Z,26.10
2022-11-24T03:42:05.927Z,31.50
2022-11-24T03:46:09.548Z,30.70
2022-11-24T03:50:13.184Z,28.80
2022-11-24T03:54:16.812Z,28.20
2022-11-24T03:58:20.896Z,32.70
2022-11-24T04:02:24.536Z,31.50
2022-11-24T04:06:28.231Z,33.10
2022-11-24T04:10:37.442Z,30.10
2022-11-24T04:14:41.541Z,27.70
2022-11-24T04:18:45.164Z,28.90
2022-11-24T04:22:50.613Z,21.60
2022-11-24T04:26:54.925Z,27.60
2022-11-24T04:31:03.176Z,32.30
2022-11-24T04:35:07.168Z,29.90
2022-11-24T04:39:19.669Z,28.70
2022-11-24T04:43:30.639Z,25.80
2022-11-24T04:47:34.663Z,25.20
2022-11-24T04:51:42.092Z,26.90
2022-11-24T04:55:45.666Z,25.20
2022-11-24T04:59:50.563Z,24.40
2022-11-24T05:03:55.447Z,26.60
2022-11-24T05:08:00.517Z,22.60
2022-11-24T05:12:04.239Z,26.70
2022-11-24T05:16:08.071Z,22.40
2022-11-24T05:20:11.760Z,26.00
2022-11-24T05:24:15.305Z,25.40
2022-11-24T05:28:19.286Z,26.60
2022-11-24T05:32:22.936Z,22.30
2022-11-24T05:36:45.184Z,24.10
2022-11-24T05:40:48.959Z,22.70
2022-11-24T05:44:53.594Z,23.60
2022-11-24T05:48:57.126Z,25.70
2022-11-24T05:53:09.104Z,21.60
2022-11-24T05:57:13.397Z,20.90
2022-11-24T06:01:16.799Z,21.80
2022-11-24T06:05:20.171Z,22.00
2022-11-24T06:09:23.547Z,19.40
2022-11-24T06:13:26.948Z,20.60
2022-11-24T06:17:30.547Z,37.80
2022-11-24T06:21:33.919Z,52.60
2022-11-24T06:25:37.193Z,32.70
2022-11-24T06:29:40.557Z,25.60
2022-11-24T06:33:43.915Z,24.70
2022-11-24T06:37:47.311Z,28.00
2022-11-24T06:41:51.127Z,21.10
2022-11-24T06:45:54.563Z,20.70
2022-11-24T06:49:58.292Z,18.70
2022-11-24T06:54:02.023Z,19.80
2022-11-24T06:58:05.791Z,18.60
2022-11-24T07:02:11.074Z,19.30
2022-11-24T07:06:15.574Z,21.00
2022-11-24T07:10:19.234Z,28.50
2022-11-24T07:14:22.604Z,25.40
2022-11-24T07:18:26.139Z,28.60
2022-11-24T07:22:29.546Z,33.10
2022-11-24T07:26:37.546Z,28.80
2022-11-24T07:30:40.964Z,28.80
2022-11-24T07:34:44.299Z,19.60
2022-11-24T07:38:48.049Z,43.70
2022-11-24T07:42:51.360Z,20.60
2022-11-24T07:46:54.825Z,26.50
2022-11-24T07:51:02.616Z,19.20
2022-11-24T07:55:06.729Z,20.30
2022-11-24T07:59:10.144Z,20.60
2022-11-24T08:03:13.557Z,22.00
2022-11-24T08:07:17.112Z,19.20
2022-11-24T08:11:20.656Z,13.60
2022-11-24T08:15:24.189Z,16.60
2022-11-24T08:19:27.675Z,19.30
2022-11-24T08:23:32.171Z,16.10
2022-11-24T08:27:36.061Z,23.80
2022-11-24T08:31:39.772Z,22.10
2022-11-24T08:35:43.144Z,22.50
2022-11-24T08:39:46.623Z,19.40
2022-11-24T08:43:50.385Z,16.60
2022-11-24T08:47:55.008Z,19.60
2022-11-24T08:51:58.538Z,21.30
2022-11-24T08:56:02.891Z,20.50
2022-11-24T09:00:07.173Z,18.70
2022-11-24T09:04:13.511Z,18.10
2022-11-24T09:08:16.963Z,21.80
2022-11-24T09:12:20.421Z,13.30
2022-11-24T09:16:29.348Z,21.90
2022-11-24T09:20:32.891Z,18.10
2022-11-24T09:24:36.344Z,22.60
2022-11-24T09:28:41.159Z,25.70
2022-11-24T09:32:44.562Z,20.30
2022-11-24T09:36:47.884Z,18.00
2022-11-24T09:40:52.615Z,22.00
2022-11-24T09:45:15.513Z,19.80
2022-11-24T09:49:30.726Z,16.90
2022-11-24T09:53:39.648Z,21.80
2022-11-24T10:01:50.182Z,21.50
2022-11-24T10:05:54.185Z,22.30
2022-11-24T10:10:04.862Z,18.50
2022-11-24T10:14:17.527Z,21.70
2022-11-24T10:18:42.600Z,21.50
2022-11-24T10:22:58.490Z,19.40
2022-11-24T10:27:02.486Z,20.00
2022-11-24T10:31:30.430Z,22.40
2022-11-24T10:35:50.926Z,23.80
2022-11-24T10:45:01.722Z,24.70
2022-11-24T10:49:30.926Z,23.10
2022-11-24T10:53:36.338Z,24.80
2022-11-24T10:57:44.112Z,23.10
2022-11-24T11:01:48.520Z,24.90
2022-11-24T11:06:27.541Z,24.70
2022-11-24T11:14:38.676Z,26.60
2022-11-24T11:18:49.136Z,26.00
2022-11-24T11:22:54.718Z,20.40
2022-11-24T11:27:05.616Z,24.10
2022-11-24T11:31:22.048Z,22.30
2022-11-24T11:35:33.855Z,23.40
2022-11-24T11:39:46.921Z,22.90
2022-11-24T11:44:03.169Z,19.90
2022-11-24T11:48:23.689Z,20.30
2022-11-24T11:52:33.448Z,18.40
2022-11-24T11:56:45.461Z,24.60
2022-11-24T12:01:00.610Z,25.00
2022-11-24T12:05:28.128Z,19.10
2022-11-24T12:09:59.668Z,21.10
2022-11-24T12:14:21.531Z,21.20
2022-11-24T12:18:55.775Z,18.10
2022-11-24T12:22:57.231Z,27.30
2022-11-24T12:27:23.461Z,48.80
2022-11-24T12:31:32.897Z,33.00
2022-11-24T12:35:49.408Z,175.10
2022-11-24T12:44:56.709Z,37.70
2022-11-24T12:49:22.076Z,41.30
2022-11-24T12:53:30.587Z,23.00
2022-11-24T12:57:40.254Z,171.30
2022-11-24T13:01:53.889Z,279.00
2022-11-24T13:06:17.586Z,51.30
2022-11-24T13:10:40.479Z,31.20
2022-11-24T13:14:49.130Z,23.90
2022-11-24T13:19:08.925Z,23.20
2022-11-24T13:23:25.681Z,24.30
2022-11-24T13:27:40.421Z,23.90
2022-11-24T13:31:43.969Z,27.00
2022-11-24T13:36:02.876Z,32.80
2022-11-24T13:40:12.114Z,31.70
2022-11-24T13:44:15.535Z,29.90
2022-11-24T13:48:22.757Z,27.80
2022-11-24T13:52:41.347Z,29.50
2022-11-24T13:56:44.823Z,29.70
2022-11-24T14:01:07.396Z,30.30
2022-11-24T14:05:15.444Z,79.40
2022-11-24T14:09:41.650Z,185.10
2022-11-24T14:13:49.177Z,37.60
2022-11-24T14:17:53.169Z,27.50
2022-11-24T14:21:57.194Z,28.50
2022-11-24T14:26:02.214Z,57.60
2022-11-24T14:30:20.988Z,213.10
2022-11-24T14:34:28.495Z,145.50
2022-11-24T14:38:31.821Z,96.70
2022-11-24T14:42:35.204Z,103.60
2022-11-24T14:46:38.909Z,62.60
2022-11-24T14:50:42.604Z,53.10
2022-11-24T14:54:52.305Z,37.80
2022-11-24T14:58:57.917Z,72.80
2022-11-24T15:03:01.298Z,58.40
2022-11-24T15:07:13.872Z,56.10
2022-11-24T15:11:18.518Z,52.70
2022-11-24T15:15:31.444Z,47.90
2022-11-24T15:19:37.041Z,53.00
2022-11-24T15:23:43.258Z,51.50
2022-11-24T15:27:52.874Z,46.50
2022-11-24T15:31:58.912Z,47.40
2022-11-24T15:36:05.169Z,52.20
2022-11-24T15:40:10.712Z,43.80
2022-11-24T15:44:14.118Z,93.80
2022-11-24T15:48:20.282Z,151.00
2022-11-24T15:52:27.893Z,91.60
2022-11-24T15:56:35.271Z,137.70
2022-11-24T16:00:43.914Z,94.50
2022-11-24T16:04:52.552Z,164.80
2022-11-24T16:09:02.099Z,80.80
2022-11-24T16:13:09.585Z,80.10
2022-11-24T16:17:16.147Z,79.10
2022-11-24T16:21:24.276Z,106.60
2022-11-24T16:25:32.863Z,170.50
2022-11-24T16:29:38.499Z,185.30
2022-11-24T16:33:44.885Z,141.00
2022-11-24T16:37:51.064Z,146.70
2022-11-24T16:41:54.878Z,130.60
2022-11-24T16:46:07.372Z,137.30
2022-11-24T16:50:13.499Z,114.80
2022-11-24T16:54:24.821Z,139.70
2022-11-24T16:58:28.638Z,255.40
2022-11-24T17:02:34.150Z,218.80
2022-11-24T17:06:38.491Z,205.70
2022-11-24T17:10:44.796Z,167.90
2022-11-24T17:15:09.319Z,185.40
2022-11-24T17:19:15.428Z,143.50
2022-11-24T17:23:21.014Z,111.70
2022-11-24T17:27:27.024Z,98.30
2022-11-24T17:31:38.340Z,93.00
2022-11-24T17:35:42.887Z,96.80
2022-11-24T17:44:08.356Z,143.40
2022-11-24T17:48:12.613Z,171.00
2022-11-24T17:52:18.208Z,223.20
2022-11-24T17:56:25.640Z,184.90
2022-11-24T18:00:37.006Z,243.80
2022-11-24T18:04:40.315Z,191.30
2022-11-24T18:13:41.152Z,140.90
2022-11-24T18:17:43.400Z,109.90
2022-11-24T18:21:49.544Z,166.30
2022-11-24T18:25:56.289Z,211.20
2022-11-24T18:30:00.272Z,149.60
2022-11-24T18:34:09.035Z,124.20
2022-11-24T18:38:14.826Z,138.90
2022-11-24T18:42:18.214Z,164.40
2022-11-24T18:46:25.542Z,194.30
2022-11-24T18:50:30.387Z,197.30
2022-11-24T18:54:37.222Z,157.50
2022-11-24T18:58:45.505Z,187.40
2022-11-24T19:02:52.749Z,159.10
2022-11-24T19:06:57.187Z,152.10
2022-11-24T19:11:02.330Z,202.60
2022-11-24T19:15:10.210Z,162.50
2022-11-24T19:19:21.074Z,153.70
2022-11-24T19:23:24.952Z,124.90
2022-11-24T19:27:31.371Z,223.30
2022-11-24T19:31:38.530Z,157.30
2022-11-24T19:35:44.812Z,252.90
2022-11-24T19:39:49.438Z,166.00
2022-11-24T19:43:56.737Z,208.70
2022-11-24T19:48:03.007Z,186.40
2022-11-24T19:52:06.370Z,185.40
2022-11-24T19:56:16.747Z,128.10
2022-11-24T20:00:21.510Z,132.70
2022-11-24T20:04:25.594Z,137.00
2022-11-24T20:08:30.845Z,131.10
2022-11-24T20:12:36.206Z,130.30
2022-11-24T20:16:51.662Z,141.80
2022-11-24T20:25:10.016Z,124.50
2022-11-24T20:29:19.002Z,114.30
2022-11-24T20:33:22.380Z,136.40
2022-11-24T20:41:50.476Z,90.10
2022-11-24T20:45:54.346Z,96.20
2022-11-24T20:49:58.020Z,104.60
2022-11-24T20:54:05.224Z,106.60
2022-11-24T20:58:09.683Z,111.90
2022-11-24T21:02:13.810Z,97.50
2022-11-24T21:06:17.700Z,96.50
2022-11-24T21:10:21.777Z,98.90
2022-11-24T21:14:25.752Z,109.00
2022-11-24T21:18:29.871Z,90.40
2022-11-24T21:22:33.981Z,110.30
2022-11-24T21:26:40.728Z,105.80
2022-11-24T21:30:44.242Z,99.80
2022-11-24T21:34:51.188Z,94.10
2022-11-24T21:39:00.218Z,113.90
2022-11-24T21:43:06.096Z,122.40
2022-11-24T21:47:12.764Z,118.50
2022-11-24T21:51:22.758Z,111.30
2022-11-24T21:55:27.021Z,149.70
2022-11-24T21:59:30.576Z,154.30
2022-11-24T22:03:34.145Z,127.90
2022-11-24T22:07:38.090Z,133.70
2022-11-24T22:11:42.255Z,117.60
2022-11-24T22:15:46.348Z,140.10
2022-11-24T22:19:49.846Z,148.00
2022-11-24T22:23:53.841Z,143.80
2022-11-24T22:27:58.573Z,126.10
2022-11-24T22:32:03.315Z,120.20
2022-11-24T22:36:07.178Z,106.90
2022-11-24T22:40:11.279Z,124.40
2022-11-24T22:44:14.644Z,109.20
2022-11-24T22:48:18.080Z,114.20
2022-11-24T22:52:22.404Z,114.40
2022-11-24T22:56:28.145Z,115.70
2022-11-24T23:00:31.872Z,99.70
2022-11-24T23:04:35.552Z,133.00
2022-11-24T23:08:42.718Z,131.80
2022-11-24T23:12:46.986Z,124.70
2022-11-24T23:16:50.639Z,125.40
2022-11-24T23:20:54.870Z,128.80
2022-11-24T23:24:58.357Z,121.60
2022-11-24T23:29:02.275Z,110.50
2022-11-24T23:33:06.324Z,122.20
2022-11-24T23:37:11.041Z,127.90
2022-11-24T23:41:18.613Z,115.60
2022-11-24T23:45:21.972Z,118.00
2022-11-24T23:49:25.318Z,116.60
2022-11-24T23:53:31.962Z,115.60
2022-11-24T23:57:35.622Z,122.40
